Time;durP1;ratioP1;P1;durP2;ratioP2;P2;SDS_P1;SDS_P2;PMS_P1;PMS_P2;Temp;Humidity;BMP_temperature;BMP_pressure;BME280_temperature;BME280_humidity;BME280_pressure;Samples;Min_cycle;Max_cycle;Signal;HPM_P1;HPM_P2
2022/07/28 00:00:09;;;;;;;4.70;1.35;;;;;;;;;;4948475;28;20095;-85
2022/07/28 00:02:35;;;;;;;2.67;1.52;;;;;;;;;;4949468;28;20047;-84
2022/07/28 00:05:00;;;;;;;1.65;1.40;;;;;;;;;;4962549;28;20031;-85
2022/07/28 00:07:25;;;;;;;2.20;1.30;;;;;;;;;;4952271;28;20194;-85
2022/07/28 00:09:51;;;;;;;3.67;1.50;;;;;;;;;;4948720;28;20031;-85
2022/07/28 00:12:18;;;;;;;2.83;1.52;;;;;;;;;;4964650;28;20043;-84
2022/07/28 00:14:43;;;;;;;3.03;1.40;;;;;;;;;;4955959;28;20069;-84
2022/07/28 00:17:09;;;;;;;3.67;1.23;;;;;;;;;;4953821;28;20071;-84
2022/07/28 00:19:34;;;;;;;2.63;1.23;;;;;;;;;;4970606;28;20045;-84
2022/07/28 00:22:01;;;;;;;2.55;1.40;;;;;;;;;;4970047;28;20491;-84
2022/07/28 00:24:27;;;;;;;6.55;1.30;;;;;;;;;;4963755;28;20035;-84
2022/07/28 00:26:52;;;;;;;2.72;1.33;;;;;;;;;;4991251;28;20066;-84
2022/07/28 00:29:17;;;;;;;1.73;1.25;;;;;;;;;;4968901;28;20434;-84
2022/07/28 00:31:43;;;;;;;2.90;1.27;;;;;;;;;;4955784;28;20623;-84
2022/07/28 00:34:08;;;;;;;3.42;1.08;;;;;;;;;;4954967;28;20035;-85
2022/07/28 00:36:33;;;;;;;2.22;1.38;;;;;;;;;;4957652;28;20119;-84
2022/07/28 00:38:59;;;;;;;2.00;1.30;;;;;;;;;;4952654;28;20097;-83
2022/07/28 00:41:24;;;;;;;3.22;1.58;;;;;;;;;;4954049;28;20391;-84
2022/07/28 00:43:51;;;;;;;1.90;1.30;;;;;;;;;;4967664;28;20054;-84
2022/07/28 00:46:18;;;;;;;2.95;1.42;;;;;;;;;;4966641;28;20082;-86
2022/07/28 00:48:47;;;;;;;1.80;1.40;;;;;;;;;;4968361;28;20067;-84
2022/07/28 00:51:15;;;;;;;5.88;1.60;;;;;;;;;;4967379;28;20050;-84
2022/07/28 00:53:42;;;;;;;4.80;1.60;;;;;;;;;;4959430;28;20118;-84
2022/07/28 00:56:07;;;;;;;1.52;1.38;;;;;;;;;;4955047;28;20058;-83
2022/07/28 00:58:34;;;;;;;1.52;1.20;;;;;;;;;;4955963;28;20109;-84
2022/07/28 01:00:59;;;;;;;3.15;1.40;;;;;;;;;;4963793;28;20023;-84
2022/07/28 01:03:26;;;;;;;2.47;1.70;;;;;;;;;;4953763;28;20094;-84
2022/07/28 01:05:56;;;;;;;2.45;1.70;;;;;;;;;;4964459;28;20042;-84
2022/07/28 01:08:32;;;;;;;2.85;1.50;;;;;;;;;;4955582;28;20090;-84
2022/07/28 01:11:06;;;;;;;4.70;1.60;;;;;;;;;;4970133;28;20541;-84
2022/07/28 01:13:53;;;;;;;;;;;;;;;;;;4969966;28;20098;-84
2022/07/28 01:16:19;;;;;;;3.53;1.65;;;;;;;;;;4954049;29;19921;-84
2022/07/28 01:18:56;;;;;;;2.63;1.48;;;;;;;;;;4952491;28;20031;-83
2022/07/28 01:21:28;;;;;;;1.88;1.27;;;;;;;;;;4955110;28;20039;-83
2022/07/28 01:24:02;;;;;;;1.95;1.30;;;;;;;;;;4955707;28;20118;-84
2022/07/28 01:26:39;;;;;;;8.50;1.58;;;;;;;;;;4967878;28;20039;-83
2022/07/28 01:29:11;;;;;;;1.98;1.30;;;;;;;;;;4958483;28;20123;-84
2022/07/28 01:31:42;;;;;;;3.22;1.63;;;;;;;;;;4965529;28;20027;-84
2022/07/28 01:34:18;;;;;;;2.83;1.30;;;;;;;;;;4950810;28;20031;-83
2022/07/28 01:36:49;;;;;;;3.17;1.40;;;;;;;;;;4965480;28;20039;-83
2022/07/28 01:39:16;;;;;;;2.88;1.40;;;;;;;;;;4951556;28;20531;-84
2022/07/28 01:41:44;;;;;;;3.92;1.67;;;;;;;;;;4950271;28;20174;-84
2022/07/28 01:44:14;;;;;;;2.50;1.25;;;;;;;;;;4950307;28;20043;-84
2022/07/28 01:46:41;;;;;;;2.03;1.30;;;;;;;;;;4962801;28;20066;-84
2022/07/28 01:49:08;;;;;;;2.00;1.50;;;;;;;;;;4952952;28;20490;-84
2022/07/28 01:51:35;;;;;;;5.45;1.50;;;;;;;;;;4962834;28;20034;-84
2022/07/28 01:54:01;;;;;;;1.75;1.33;;;;;;;;;;4949964;28;20626;-84
2022/07/28 01:56:29;;;;;;;5.00;1.42;;;;;;;;;;4965804;28;20054;-84
2022/07/28 01:58:58;;;;;;;2.90;1.60;;;;;;;;;;4950672;28;20190;-83
2022/07/28 02:01:25;;;;;;;2.65;1.40;;;;;;;;;;4950475;28;20118;-83
2022/07/28 02:03:52;;;;;;;4.63;1.50;;;;;;;;;;4950523;28;20062;-84
2022/07/28 02:06:20;;;;;;;2.33;1.55;;;;;;;;;;4951678;28;20029;-83
2022/07/28 02:08:47;;;;;;;3.05;1.60;;;;;;;;;;4951072;28;20046;-85
2022/07/28 02:13:57;;;;;;;2.47;1.58;;;;;;;;;;4948698;28;20071;-83
2022/07/28 02:16:24;;;;;;;1.45;1.17;;;;;;;;;;4950463;29;20019;-84
2022/07/28 02:18:53;;;;;;;2.40;1.40;;;;;;;;;;4950960;29;20039;-83
2022/07/28 02:21:20;;;;;;;3.08;1.30;;;;;;;;;;4948594;28;20038;-83
2022/07/28 02:23:47;;;;;;;4.85;1.55;;;;;;;;;;4951415;28;20541;-84
2022/07/28 02:26:15;;;;;;;3.30;1.38;;;;;;;;;;4950114;28;20043;-84
2022/07/28 02:28:42;;;;;;;3.40;1.95;;;;;;;;;;4942785;28;20024;-84
2022/07/28 02:31:28;;;;;;;4.47;1.20;;;;;;;;;;4950068;29;20552;-85
2022/07/28 02:33:57;;;;;;;3.10;1.25;;;;;;;;;;4951128;28;20591;-83
2022/07/28 02:36:36;;;;;;;2.45;1.67;;;;;;;;;;4964195;28;20066;-84
2022/07/28 02:39:06;;;;;;;4.57;1.65;;;;;;;;;;4946427;28;20049;-84
2022/07/28 02:41:35;;;;;;;2.58;1.65;;;;;;;;;;4950836;28;20039;-84
2022/07/28 02:44:10;;;;;;;3.15;1.80;;;;;;;;;;4945937;28;20047;-83
2022/07/28 02:46:41;;;;;;;2.33;1.40;;;;;;;;;;4949236;28;20012;-83
2022/07/28 02:49:11;;;;;;;3.45;1.67;;;;;;;;;;4951360;29;20560;-84
2022/07/28 02:51:39;;;;;;;3.00;1.67;;;;;;;;;;4948709;28;20057;-83
2022/07/28 02:54:05;;;;;;;2.60;1.70;;;;;;;;;;4949757;28;20139;-83
2022/07/28 02:56:31;;;;;;;3.25;1.50;;;;;;;;;;4948834;28;20058;-85
2022/07/28 02:58:57;;;;;;;3.05;1.38;;;;;;;;;;4947811;29;20031;-84
2022/07/28 03:01:24;;;;;;;2.83;1.70;;;;;;;;;;4949391;28;20510;-83
2022/07/28 03:03:50;;;;;;;1.83;1.27;;;;;;;;;;4947804;28;20106;-83
2022/07/28 03:06:16;;;;;;;4.68;1.70;;;;;;;;;;4961406;28;20070;-84
2022/07/28 03:08:42;;;;;;;4.70;1.42;;;;;;;;;;4947404;28;20047;-83
2022/07/28 03:11:10;;;;;;;2.42;1.58;;;;;;;;;;4949980;28;20418;-85
2022/07/28 03:13:36;;;;;;;2.58;1.60;;;;;;;;;;4954946;28;20041;-84
2022/07/28 03:16:03;;;;;;;3.47;1.65;;;;;;;;;;4950597;29;20029;-84
2022/07/28 03:18:28;;;;;;;4.07;1.60;;;;;;;;;;4957180;28;20035;-84
2022/07/28 03:20:55;;;;;;;2.33;1.58;;;;;;;;;;4946781;28;20043;-84
2022/07/28 03:23:25;;;;;;;5.85;1.90;;;;;;;;;;4946697;28;20042;-84
2022/07/28 03:25:53;;;;;;;3.17;1.70;;;;;;;;;;4941906;28;20123;-84
2022/07/28 03:28:20;;;;;;;2.30;1.50;;;;;;;;;;4948468;28;20030;-83
2022/07/28 03:30:52;;;;;;;3.63;1.70;;;;;;;;;;4947368;28;20046;-83
2022/07/28 03:33:18;;;;;;;4.15;1.80;;;;;;;;;;4943556;29;20039;-83
2022/07/28 03:35:49;;;;;;;5.75;1.80;;;;;;;;;;4946438;28;20986;-83
2022/07/28 03:38:20;;;;;;;2.95;1.63;;;;;;;;;;4961561;28;20534;-82
2022/07/28 03:40:47;;;;;;;2.67;1.73;;;;;;;;;;4948672;28;20031;-83
2022/07/28 03:43:17;;;;;;;5.72;1.90;;;;;;;;;;4955601;28;20110;-86
2022/07/28 03:45:44;;;;;;;3.17;2.00;;;;;;;;;;4948138;28;20045;-86
2022/07/28 03:48:10;;;;;;;3.13;1.67;;;;;;;;;;4946665;28;20031;-85
2022/07/28 03:50:35;;;;;;;2.08;1.40;;;;;;;;;;4947728;28;20038;-84
2022/07/28 03:53:04;;;;;;;3.03;1.55;;;;;;;;;;4948124;28;20161;-85
2022/07/28 03:55:29;;;;;;;3.90;1.90;;;;;;;;;;4946791;28;20069;-85
2022/07/28 03:57:56;;;;;;;2.42;1.65;;;;;;;;;;4949029;28;20043;-85
2022/07/28 04:00:24;;;;;;;3.97;1.60;;;;;;;;;;4962257;28;20541;-88
2022/07/28 04:02:50;;;;;;;3.05;1.85;;;;;;;;;;4948925;28;20073;-86
2022/07/28 04:05:17;;;;;;;2.55;1.50;;;;;;;;;;4948620;28;21165;-85
2022/07/28 04:07:42;;;;;;;5.68;1.58;;;;;;;;;;4947822;28;20049;-85
2022/07/28 04:10:10;;;;;;;2.60;1.63;;;;;;;;;;4948061;28;20015;-87
2022/07/28 04:12:49;;;;;;;3.47;1.70;;;;;;;;;;4962906;28;20050;-87
2022/07/28 04:15:16;;;;;;;3.00;1.60;;;;;;;;;;4963646;28;20055;-84
2022/07/28 04:17:42;;;;;;;4.72;1.73;;;;;;;;;;4949659;28;20031;-86
2022/07/28 04:20:09;;;;;;;4.22;1.85;;;;;;;;;;4949069;28;20041;-86
2022/07/28 04:22:34;;;;;;;4.82;1.80;;;;;;;;;;4949416;28;20023;-86
2022/07/28 04:25:03;;;;;;;2.95;1.83;;;;;;;;;;4964767;28;20030;-86
2022/07/28 04:27:28;;;;;;;1.80;1.50;;;;;;;;;;4945695;28;20039;-86
2022/07/28 04:29:53;;;;;;;3.35;1.70;;;;;;;;;;4947942;28;20065;-86
2022/07/28 04:32:19;;;;;;;2.85;1.40;;;;;;;;;;4948083;28;20469;-85
2022/07/28 04:34:44;;;;;;;1.92;1.42;;;;;;;;;;4947597;28;20122;-85
2022/07/28 04:37:09;;;;;;;2.55;1.38;;;;;;;;;;4948238;29;20027;-85
2022/07/28 04:39:35;;;;;;;4.95;1.83;;;;;;;;;;4949649;28;20031;-85
2022/07/28 04:42:01;;;;;;;2.40;1.77;;;;;;;;;;4949450;28;20090;-86
2022/07/28 04:44:26;;;;;;;3.10;1.77;;;;;;;;;;4949455;28;20043;-86
2022/07/28 04:46:51;;;;;;;5.43;1.80;;;;;;;;;;4949568;28;20455;-86
2022/07/28 04:49:17;;;;;;;4.25;1.67;;;;;;;;;;4950592;29;20039;-86
2022/07/28 04:51:48;;;;;;;4.18;1.83;;;;;;;;;;4947610;28;20038;-86
2022/07/28 04:54:13;;;;;;;6.75;1.70;;;;;;;;;;4944289;28;20032;-85
2022/07/28 04:56:39;;;;;;;3.65;1.92;;;;;;;;;;4962291;28;20437;-85
2022/07/28 04:59:04;;;;;;;4.97;1.70;;;;;;;;;;4949663;28;20422;-86
2022/07/28 05:01:29;;;;;;;4.95;1.77;;;;;;;;;;4951785;28;20027;-84
2022/07/28 05:03:55;;;;;;;2.88;1.45;;;;;;;;;;4951994;28;20383;-85
2022/07/28 05:06:20;;;;;;;1.70;1.48;;;;;;;;;;4952063;28;20042;-87
2022/07/28 05:08:45;;;;;;;2.97;1.52;;;;;;;;;;4952520;28;20039;-85
2022/07/28 05:11:11;;;;;;;2.75;1.65;;;;;;;;;;4952985;28;20046;-86
2022/07/28 05:13:36;;;;;;;3.25;1.50;;;;;;;;;;4953798;28;20034;-87
2022/07/28 05:16:01;;;;;;;3.22;1.75;;;;;;;;;;4953821;29;20058;-86
2022/07/28 05:18:27;;;;;;;7.03;1.67;;;;;;;;;;4952793;28;20597;-88
2022/07/28 05:20:53;;;;;;;4.15;1.75;;;;;;;;;;4951820;28;20098;-88
2022/07/28 05:23:18;;;;;;;4.13;2.00;;;;;;;;;;4951473;28;20138;-88
2022/07/28 05:25:44;;;;;;;4.60;1.90;;;;;;;;;;4950259;28;20082;-90
2022/07/28 05:28:09;;;;;;;5.85;1.90;;;;;;;;;;4972321;28;20031;-89
2022/07/28 05:30:37;;;;;;;3.85;1.77;;;;;;;;;;4955089;28;20036;-90
2022/07/28 05:33:03;;;;;;;2.28;1.45;;;;;;;;;;4956779;28;20031;-89
2022/07/28 05:35:28;;;;;;;5.72;1.85;;;;;;;;;;4956326;28;20032;-89
2022/07/28 05:37:56;;;;;;;4.03;1.77;;;;;;;;;;4942438;28;20427;-90
2022/07/28 05:40:22;;;;;;;2.40;1.70;;;;;;;;;;4969025;28;20051;-89
2022/07/28 05:42:47;;;;;;;8.10;1.85;;;;;;;;;;4972307;28;20043;-89
2022/07/28 05:45:13;;;;;;;2.63;1.85;;;;;;;;;;4954560;28;20043;-91
2022/07/28 05:47:48;;;;;;;13.70;2.45;;;;;;;;;;4955291;28;20027;-89
2022/07/28 05:50:14;;;;;;;4.65;2.17;;;;;;;;;;4969251;28;20031;-89
2022/07/28 05:52:40;;;;;;;3.35;1.92;;;;;;;;;;4962517;28;20027;-92
2022/07/28 05:55:06;;;;;;;3.53;1.70;;;;;;;;;;4956141;28;20027;-90
2022/07/28 05:57:32;;;;;;;6.80;2.00;;;;;;;;;;4955302;28;20046;-90
2022/07/28 05:59:57;;;;;;;2.75;1.70;;;;;;;;;;4970617;28;20047;-90
2022/07/28 06:02:22;;;;;;;2.78;1.70;;;;;;;;;;4971883;28;20046;-93
2022/07/28 06:04:48;;;;;;;6.90;2.13;;;;;;;;;;4954535;28;20039;-93
2022/07/28 06:07:13;;;;;;;4.05;2.10;;;;;;;;;;4955689;29;20024;-90
2022/07/28 06:09:39;;;;;;;2.40;1.70;;;;;;;;;;4955560;28;20031;-89
2022/07/28 06:12:07;;;;;;;4.82;2.03;;;;;;;;;;4955040;28;20035;-89
2022/07/28 06:14:33;;;;;;;5.25;2.17;;;;;;;;;;4970444;28;20036;-89
2022/07/28 06:16:58;;;;;;;2.60;1.90;;;;;;;;;;4954017;28;20106;-89
2022/07/28 06:19:24;;;;;;;4.68;1.95;;;;;;;;;;4954967;29;20118;-89
2022/07/28 06:21:51;;;;;;;3.78;1.90;;;;;;;;;;4952847;28;20074;-89
2022/07/28 06:24:17;;;;;;;3.88;2.00;;;;;;;;;;4956819;28;20039;-89
2022/07/28 06:26:42;;;;;;;4.28;1.80;;;;;;;;;;4954095;28;20082;-90
2022/07/28 06:29:08;;;;;;;6.68;2.00;;;;;;;;;;4970220;28;20035;-90
2022/07/28 06:31:33;;;;;;;4.68;2.70;;;;;;;;;;4969391;28;20074;-87
2022/07/28 06:33:59;;;;;;;10.05;2.10;;;;;;;;;;4954488;29;20074;-90
2022/07/28 06:36:27;;;;;;;2.97;1.70;;;;;;;;;;4954616;29;20511;-91
2022/07/28 06:38:53;;;;;;;3.58;1.60;;;;;;;;;;4953993;28;20036;-93
2022/07/28 06:41:19;;;;;;;3.60;1.70;;;;;;;;;;4969254;28;20047;-93
2022/07/28 06:43:44;;;;;;;3.47;1.90;;;;;;;;;;4954217;28;20043;-93
2022/07/28 06:46:09;;;;;;;5.70;2.08;;;;;;;;;;4956000;28;20118;-92
2022/07/28 06:48:38;;;;;;;3.25;1.80;;;;;;;;;;4971078;28;20110;-91
2022/07/28 06:51:04;;;;;;;4.25;1.77;;;;;;;;;;4969755;28;20039;-91
2022/07/28 06:53:29;;;;;;;5.88;2.10;;;;;;;;;;4969685;28;20067;-90
2022/07/28 06:55:55;;;;;;;3.83;2.03;;;;;;;;;;4953868;28;20062;-90
2022/07/28 06:58:20;;;;;;;6.90;1.98;;;;;;;;;;4953909;29;20138;-91
2022/07/28 07:00:45;;;;;;;4.63;2.38;;;;;;;;;;4954646;28;20043;-90
2022/07/28 07:03:11;;;;;;;6.57;1.65;;;;;;;;;;4969018;28;20046;-89
2022/07/28 07:05:36;;;;;;;5.78;1.67;;;;;;;;;;4953600;28;20082;-91
2022/07/28 07:08:02;;;;;;;3.58;1.95;;;;;;;;;;4953481;28;20039;-87
2022/07/28 07:10:27;;;;;;;3.97;1.70;;;;;;;;;;4951655;28;20046;-88
2022/07/28 07:12:53;;;;;;;4.75;2.00;;;;;;;;;;4953907;28;20125;-92
2022/07/28 07:15:18;;;;;;;3.17;1.75;;;;;;;;;;4954908;28;20327;-90
2022/07/28 07:17:43;;;;;;;5.25;1.70;;;;;;;;;;4969124;28;20043;-90
2022/07/28 07:20:12;;;;;;;3.55;1.60;;;;;;;;;;4953610;28;20035;-91
2022/07/28 07:22:42;;;;;;;5.63;1.70;;;;;;;;;;4953947;28;20054;-94
2022/07/28 07:25:10;;;;;;;4.30;1.70;;;;;;;;;;4951593;29;20046;-88
2022/07/28 07:27:35;;;;;;;2.80;1.70;;;;;;;;;;4952004;28;20043;-88
2022/07/28 07:30:05;;;;;;;3.72;1.80;;;;;;;;;;4952974;28;20040;-87
2022/07/28 07:32:31;;;;;;;5.85;1.63;;;;;;;;;;4967837;28;20093;-88
2022/07/28 07:34:56;;;;;;;2.95;1.80;;;;;;;;;;4965853;28;20035;-89
2022/07/28 07:37:25;;;;;;;2.50;1.75;;;;;;;;;;4952946;29;20031;-89
2022/07/28 07:39:50;;;;;;;1.92;1.20;;;;;;;;;;4953784;28;20481;-89
2022/07/28 07:42:16;;;;;;;2.88;1.50;;;;;;;;;;4954342;28;20043;-92
2022/07/28 07:44:41;;;;;;;3.67;2.17;;;;;;;;;;4952709;29;20094;-91
2022/07/28 07:47:10;;;;;;;3.17;1.80;;;;;;;;;;4953510;28;20045;-88
2022/07/28 07:49:38;;;;;;;2.00;1.58;;;;;;;;;;4953401;28;20031;-86
2022/07/28 07:52:04;;;;;;;3.42;1.45;;;;;;;;;;4953438;28;20475;-90
2022/07/28 07:54:29;;;;;;;4.07;1.63;;;;;;;;;;4968121;28;20069;-87
2022/07/28 07:56:58;;;;;;;3.00;1.52;;;;;;;;;;4967852;28;20035;-92
2022/07/28 07:59:23;;;;;;;4.68;1.80;;;;;;;;;;4949892;28;20515;-87
2022/07/28 08:01:53;;;;;;;2.15;1.60;;;;;;;;;;4950666;28;20590;-87
2022/07/28 08:04:19;;;;;;;3.58;1.83;;;;;;;;;;4949374;28;20608;-91
2022/07/28 08:06:45;;;;;;;5.15;1.92;;;;;;;;;;4948321;28;20035;-87
2022/07/28 08:09:10;;;;;;;2.28;1.38;;;;;;;;;;4954047;28;20058;-89
2022/07/28 08:11:36;;;;;;;6.43;1.95;;;;;;;;;;4948406;28;20126;-90
2022/07/28 08:14:01;;;;;;;6.97;1.70;;;;;;;;;;4950487;28;20043;-90
2022/07/28 08:16:27;;;;;;;2.08;1.40;;;;;;;;;;4946119;28;20043;-88
2022/07/28 08:18:52;;;;;;;3.03;1.60;;;;;;;;;;4949346;28;20406;-89
2022/07/28 08:21:18;;;;;;;3.53;1.60;;;;;;;;;;4947529;28;20039;-87
2022/07/28 08:23:43;;;;;;;2.05;1.20;;;;;;;;;;4947645;28;20043;-89
2022/07/28 08:26:08;;;;;;;1.92;1.40;;;;;;;;;;4964356;28;20079;-87
2022/07/28 08:28:34;;;;;;;7.40;1.65;;;;;;;;;;4965115;28;20023;-88
2022/07/28 08:30:59;;;;;;;2.40;1.50;;;;;;;;;;4949157;28;20031;-88
2022/07/28 08:33:25;;;;;;;3.17;1.30;;;;;;;;;;4951161;28;20035;-89
2022/07/28 08:35:50;;;;;;;2.42;1.15;;;;;;;;;;4954578;28;20482;-89
2022/07/28 08:38:16;;;;;;;3.15;1.40;;;;;;;;;;4959049;28;20578;-88
2022/07/28 08:40:44;;;;;;;3.33;1.40;;;;;;;;;;4950502;28;20747;-88
2022/07/28 08:43:33;;;;;;;5.50;1.70;;;;;;;;;;4951578;28;20059;-87
2022/07/28 08:46:00;;;;;;;3.30;1.40;;;;;;;;;;4948595;28;20039;-88
2022/07/28 08:48:36;;;;;;;1.60;1.17;;;;;;;;;;4967300;28;20114;-93
2022/07/28 08:51:08;;;;;;;5.72;1.75;;;;;;;;;;4952771;28;20664;-92
2022/07/28 08:53:35;;;;;;;2.55;0.95;;;;;;;;;;4967990;28;20140;-90
2022/07/28 08:56:04;;;;;;;4.10;1.20;;;;;;;;;;4953304;28;20031;-87
2022/07/28 08:58:34;;;;;;;3.42;1.38;;;;;;;;;;4964346;28;20061;-86
2022/07/28 09:01:00;;;;;;;2.67;1.30;;;;;;;;;;4949235;28;20019;-84
2022/07/28 09:03:27;;;;;;;3.58;1.50;;;;;;;;;;4947826;28;20039;-86
2022/07/28 09:05:53;;;;;;;2.88;1.30;;;;;;;;;;4966420;28;20043;-86
2022/07/28 09:08:19;;;;;;;2.00;1.50;;;;;;;;;;4952262;28;20043;-86
2022/07/28 09:10:45;;;;;;;4.55;1.40;;;;;;;;;;4955878;28;20094;-86
2022/07/28 09:13:11;;;;;;;3.10;1.45;;;;;;;;;;4965359;28;20028;-87
2022/07/28 09:15:37;;;;;;;4.57;1.38;;;;;;;;;;4950297;28;20415;-86
2022/07/28 09:18:03;;;;;;;3.15;1.60;;;;;;;;;;4951021;28;20439;-88
2022/07/28 09:20:29;;;;;;;2.92;1.42;;;;;;;;;;4953378;28;20039;-85
2022/07/28 09:23:00;;;;;;;2.58;1.17;;;;;;;;;;4945790;28;20128;-86
2022/07/28 09:25:26;;;;;;;3.20;1.60;;;;;;;;;;4953702;28;20022;-86
2022/07/28 09:27:52;;;;;;;4.88;1.38;;;;;;;;;;4950389;28;20031;-86
2022/07/28 09:30:27;;;;;;;2.38;1.33;;;;;;;;;;4963928;28;20291;-88
2022/07/28 09:33:22;;;;;;;2.88;1.60;;;;;;;;;;4949774;28;20139;-87
2022/07/28 09:35:53;;;;;;;6.47;1.73;;;;;;;;;;4949204;28;20601;-86
2022/07/28 09:38:21;;;;;;;4.43;1.70;;;;;;;;;;4940894;28;21004;-88
2022/07/28 09:41:05;;;;;;;2.10;1.40;;;;;;;;;;4945535;28;20529;-86
2022/07/28 09:43:35;;;;;;;2.15;1.30;;;;;;;;;;4965881;28;20050;-89
2022/07/28 09:46:06;;;;;;;3.55;1.60;;;;;;;;;;4956071;28;20011;-90
2022/07/28 09:48:54;;;;;;;3.22;1.50;;;;;;;;;;4935600;28;20047;-90
2022/07/28 09:51:27;;;;;;;5.88;1.30;;;;;;;;;;4934791;28;20623;-89
2022/07/28 09:54:04;;;;;;;1.55;1.27;;;;;;;;;;4948317;28;20043;-90
2022/07/28 09:56:30;;;;;;;2.15;1.40;;;;;;;;;;4951958;28;20208;-87
2022/07/28 09:58:58;;;;;;;3.05;1.50;;;;;;;;;;4953629;28;20649;-90
2022/07/28 10:01:24;;;;;;;2.70;1.40;;;;;;;;;;4953749;29;20469;-91
2022/07/28 10:03:56;;;;;;;5.07;1.30;;;;;;;;;;4950426;28;20047;-88
2022/07/28 10:06:29;;;;;;;2.75;1.40;;;;;;;;;;4970339;28;20093;-91
2022/07/28 10:08:57;;;;;;;3.38;1.40;;;;;;;;;;4952752;28;20035;-88
2022/07/28 10:11:28;;;;;;;4.57;1.40;;;;;;;;;;4949675;28;20592;-86
2022/07/28 10:13:54;;;;;;;3.13;1.30;;;;;;;;;;4943214;28;20047;-87
2022/07/28 10:16:22;;;;;;;2.95;1.30;;;;;;;;;;4948035;28;20031;-88
2022/07/28 10:18:47;;;;;;;2.95;1.50;;;;;;;;;;4960095;28;20039;-89
2022/07/28 10:21:16;;;;;;;2.35;1.40;;;;;;;;;;4952641;28;20035;-86
2022/07/28 10:23:53;;;;;;;2.92;1.25;;;;;;;;;;4951093;29;20138;-87
2022/07/28 10:26:31;;;;;;;4.43;1.30;;;;;;;;;;4951867;28;20046;-85
2022/07/28 10:29:01;;;;;;;1.88;1.48;;;;;;;;;;4966869;28;20039;-85
2022/07/28 10:31:51;;;;;;;1.33;0.90;;;;;;;;;;4952471;28;20090;-87
2022/07/28 10:34:42;;;;;;;1.63;1.30;;;;;;;;;;4950487;29;20130;-86
2022/07/28 10:37:09;;;;;;;3.10;1.42;;;;;;;;;;4951213;29;20081;-87
2022/07/28 10:39:46;;;;;;;4.35;1.73;;;;;;;;;;4968236;28;20045;-88
2022/07/28 10:42:13;;;;;;;2.15;1.50;;;;;;;;;;4950910;29;20085;-88
2022/07/28 10:44:40;;;;;;;3.00;1.38;;;;;;;;;;4951254;28;20043;-86
2022/07/28 10:47:09;;;;;;;3.25;1.40;;;;;;;;;;4957038;28;20062;-87
2022/07/28 10:49:35;;;;;;;1.73;1.27;;;;;;;;;;4966007;28;20467;-88
2022/07/28 10:52:01;;;;;;;1.52;1.30;;;;;;;;;;4952126;28;20027;-84
2022/07/28 10:54:29;;;;;;;2.92;1.30;;;;;;;;;;4966692;28;20097;-87
2022/07/28 10:57:03;;;;;;;7.50;1.30;;;;;;;;;;4967419;28;20031;-88
2022/07/28 10:59:52;;;;;;;3.05;1.67;;;;;;;;;;4952070;28;20070;-87
2022/07/28 11:02:58;;;;;;;4.25;1.40;;;;;;;;;;4966962;28;20119;-87
2022/07/28 11:05:26;;;;;;;1.67;1.30;;;;;;;;;;4957967;28;20027;-86
2022/07/28 11:07:52;;;;;;;2.75;1.33;;;;;;;;;;4952438;28;20069;-87
2022/07/28 11:10:19;;;;;;;2.95;1.58;;;;;;;;;;4948609;28;20050;-86
2022/07/28 11:12:50;;;;;;;4.63;1.40;;;;;;;;;;4947075;28;20062;-89
2022/07/28 11:15:30;;;;;;;4.05;1.42;;;;;;;;;;4961201;28;20032;-87
2022/07/28 11:18:03;;;;;;;3.67;1.65;;;;;;;;;;4947610;28;20054;-88
2022/07/28 11:20:57;;;;;;;1.90;1.25;;;;;;;;;;4947627;28;20050;-89
2022/07/28 11:23:45;;;;;;;3.53;1.52;;;;;;;;;;4948584;28;20035;-88
2022/07/28 11:26:20;;;;;;;1.85;1.10;;;;;;;;;;4947259;28;20039;-88
2022/07/28 11:29:07;;;;;;;3.38;1.70;;;;;;;;;;4961780;28;20098;-86
2022/07/28 11:31:47;;;;;;;3.90;1.40;;;;;;;;;;4951983;28;20043;-87
2022/07/28 11:34:17;;;;;;;2.95;1.40;;;;;;;;;;4967171;28;20028;-88
2022/07/28 11:37:09;;;;;;;2.78;1.70;;;;;;;;;;4947249;28;20418;-87
2022/07/28 11:39:44;;;;;;;3.50;1.58;;;;;;;;;;4946709;28;20042;-90
2022/07/28 11:42:31;;;;;;;2.67;1.40;;;;;;;;;;4961481;28;20039;-86
2022/07/28 11:45:23;;;;;;;3.65;1.50;;;;;;;;;;4944270;28;20043;-88
2022/07/28 11:48:14;;;;;;;3.88;1.67;;;;;;;;;;4951054;28;20636;-89
2022/07/28 11:50:40;;;;;;;3.28;1.52;;;;;;;;;;4947805;28;20102;-87
2022/07/28 11:53:06;;;;;;;3.30;1.40;;;;;;;;;;4949867;28;20031;-86
2022/07/28 11:55:32;;;;;;;2.90;1.73;;;;;;;;;;4950200;28;20027;-87
2022/07/28 11:58:02;;;;;;;3.28;1.60;;;;;;;;;;4946836;29;20027;-89
2022/07/28 12:00:28;;;;;;;4.53;1.60;;;;;;;;;;4941548;28;20035;-86
2022/07/28 12:02:53;;;;;;;3.15;1.65;;;;;;;;;;4947661;28;20063;-85
2022/07/28 12:05:21;;;;;;;3.72;1.42;;;;;;;;;;4949275;28;20070;-86
2022/07/28 12:07:51;;;;;;;2.95;1.50;;;;;;;;;;4944095;28;20067;-84
2022/07/28 12:10:35;;;;;;;4.90;2.20;;;;;;;;;;4947253;28;20023;-83
2022/07/28 12:13:03;;;;;;;3.95;1.60;;;;;;;;;;4933905;29;20036;-83
2022/07/28 12:15:29;;;;;;;3.05;1.60;;;;;;;;;;4939385;28;20039;-85
2022/07/28 12:17:57;;;;;;;2.22;1.40;;;;;;;;;;4947763;28;20541;-84
2022/07/28 12:20:29;;;;;;;5.43;1.67;;;;;;;;;;4952043;28;20035;-83
2022/07/28 12:23:06;;;;;;;4.47;1.67;;;;;;;;;;4949465;28;20039;-82
2022/07/28 12:25:43;;;;;;;3.03;1.60;;;;;;;;;;4948800;28;20098;-82
2022/07/28 12:28:21;;;;;;;4.10;1.55;;;;;;;;;;4965007;28;20118;-83
2022/07/28 12:30:48;;;;;;;3.33;1.50;;;;;;;;;;4949253;28;20105;-82
2022/07/28 12:33:25;;;;;;;2.75;1.50;;;;;;;;;;4947267;28;20063;-83
2022/07/28 12:35:55;;;;;;;3.65;1.40;;;;;;;;;;4948574;28;20046;-82
2022/07/28 12:38:23;;;;;;;3.78;1.60;;;;;;;;;;4948019;28;20032;-83
2022/07/28 12:40:49;;;;;;;4.45;2.67;;;;;;;;;;4948109;28;20046;-82
2022/07/28 12:43:26;;;;;;;2.75;1.52;;;;;;;;;;4949317;28;20118;-83
2022/07/28 12:45:52;;;;;;;3.33;1.65;;;;;;;;;;4949174;28;20039;-85
2022/07/28 12:48:18;;;;;;;3.05;1.35;;;;;;;;;;4955974;28;20034;-84
2022/07/28 12:50:43;;;;;;;2.70;1.58;;;;;;;;;;4947683;28;20095;-82
2022/07/28 12:53:11;;;;;;;3.50;1.67;;;;;;;;;;4947757;28;20043;-83
2022/07/28 12:55:37;;;;;;;3.80;1.70;;;;;;;;;;4949281;28;20082;-82
2022/07/28 12:58:04;;;;;;;4.30;1.48;;;;;;;;;;4947388;29;20015;-83
2022/07/28 13:00:32;;;;;;;3.38;1.60;;;;;;;;;;4946827;28;20748;-83
2022/07/28 13:02:59;;;;;;;2.60;1.77;;;;;;;;;;4947173;28;20042;-83
2022/07/28 13:05:25;;;;;;;4.03;1.60;;;;;;;;;;4949010;28;20035;-83
2022/07/28 13:08:00;;;;;;;3.38;1.50;;;;;;;;;;4945191;28;20039;-83
2022/07/28 13:10:26;;;;;;;2.50;1.40;;;;;;;;;;4933751;28;20532;-82
2022/07/28 13:13:06;;;;;;;2.22;1.50;;;;;;;;;;4945940;28;20035;-85
2022/07/28 13:15:32;;;;;;;3.10;1.60;;;;;;;;;;4941518;29;20039;-84
2022/07/28 13:17:58;;;;;;;2.72;1.60;;;;;;;;;;4948385;28;20050;-83
2022/07/28 13:20:24;;;;;;;2.80;1.70;;;;;;;;;;4954562;28;20728;-83
2022/07/28 13:22:51;;;;;;;4.03;1.90;;;;;;;;;;4966137;28;20178;-85
2022/07/28 13:25:17;;;;;;;2.80;1.65;;;;;;;;;;4947650;28;20023;-84
2022/07/28 13:27:42;;;;;;;3.70;1.75;;;;;;;;;;4947245;28;20030;-84
2022/07/28 13:30:09;;;;;;;2.63;1.60;;;;;;;;;;4947599;28;20423;-84
2022/07/28 13:32:34;;;;;;;3.67;1.90;;;;;;;;;;4947515;28;20118;-82
2022/07/28 13:35:00;;;;;;;2.78;1.77;;;;;;;;;;4959743;28;20114;-84
2022/07/28 13:37:25;;;;;;;2.17;1.42;;;;;;;;;;4941707;28;20110;-83
2022/07/28 13:39:50;;;;;;;2.60;1.73;;;;;;;;;;4947274;29;20094;-85
2022/07/28 13:42:17;;;;;;;2.80;1.67;;;;;;;;;;4951613;28;20042;-84
2022/07/28 13:44:42;;;;;;;3.00;1.70;;;;;;;;;;4950096;28;20425;-84
2022/07/28 13:47:08;;;;;;;2.53;1.70;;;;;;;;;;4949473;28;20040;-84
2022/07/28 13:49:36;;;;;;;2.92;1.30;;;;;;;;;;4951834;28;20666;-84
2022/07/28 13:52:03;;;;;;;2.13;1.60;;;;;;;;;;4947083;28;20541;-83
2022/07/28 13:54:28;;;;;;;4.88;1.60;;;;;;;;;;4959729;28;20039;-83
2022/07/28 13:57:09;;;;;;;7.05;1.80;;;;;;;;;;4943016;28;20093;-84
2022/07/28 13:59:35;;;;;;;2.42;1.77;;;;;;;;;;4948260;28;20035;-84
2022/07/28 14:02:00;;;;;;;4.88;1.77;;;;;;;;;;4949704;29;20090;-84
2022/07/28 14:04:26;;;;;;;5.38;1.73;;;;;;;;;;4952075;28;20035;-82
2022/07/28 14:06:51;;;;;;;2.22;1.70;;;;;;;;;;4951447;29;20530;-84
2022/07/28 14:09:17;;;;;;;3.25;1.40;;;;;;;;;;4951369;28;20051;-85
2022/07/28 14:11:42;;;;;;;2.72;1.50;;;;;;;;;;4951394;28;20039;-84
2022/07/28 14:14:07;;;;;;;7.40;1.73;;;;;;;;;;4951099;28;20043;-84
2022/07/28 14:16:33;;;;;;;4.05;1.67;;;;;;;;;;4951254;28;20031;-85
2022/07/28 14:18:58;;;;;;;5.68;1.83;;;;;;;;;;4949729;29;20035;-86
2022/07/28 14:21:24;;;;;;;5.53;2.50;;;;;;;;;;4950711;28;20050;-86
2022/07/28 14:23:50;;;;;;;3.30;1.48;;;;;;;;;;4949100;28;20573;-87
2022/07/28 14:26:16;;;;;;;2.50;1.73;;;;;;;;;;4947991;28;20031;-89
2022/07/28 14:28:41;;;;;;;2.97;1.60;;;;;;;;;;4945336;28;20038;-86
2022/07/28 14:31:07;;;;;;;3.60;1.75;;;;;;;;;;4944703;28;20023;-87
2022/07/28 14:33:32;;;;;;;3.53;1.70;;;;;;;;;;4948330;28;20039;-85
2022/07/28 14:35:58;;;;;;;3.90;1.90;;;;;;;;;;4946504;28;20083;-86
2022/07/28 14:38:23;;;;;;;3.75;1.60;;;;;;;;;;4948048;28;20038;-87
2022/07/28 14:40:49;;;;;;;2.50;1.77;;;;;;;;;;4949420;28;20047;-87
2022/07/28 14:43:15;;;;;;;3.13;1.90;;;;;;;;;;4944685;28;20053;-87
2022/07/28 14:45:41;;;;;;;4.88;1.65;;;;;;;;;;4945405;28;20065;-88
2022/07/28 14:48:06;;;;;;;2.35;1.65;;;;;;;;;;4944976;28;20063;-85
2022/07/28 14:50:32;;;;;;;2.65;1.48;;;;;;;;;;4947431;28;20043;-85
2022/07/28 14:52:59;;;;;;;2.83;1.70;;;;;;;;;;4963540;28;20035;-84